createdAt,value
2019-04-16T00:01:01.295Z,8.10
2019-04-16T00:04:24.959Z,8.33
2019-04-16T00:07:32.473Z,9.00
2019-04-16T00:10:52.778Z,7.87
2019-04-16T00:13:57.952Z,8.13
2019-04-16T00:17:01.386Z,8.40
2019-04-16T00:20:06.881Z,8.03
2019-04-16T00:23:18.290Z,7.83
2019-04-16T00:26:26.506Z,8.83
2019-04-16T00:29:26.923Z,7.67
2019-04-16T00:32:31.052Z,8.27
2019-04-16T00:35:34.472Z,7.50
2019-04-16T00:38:40.925Z,7.50
2019-04-16T00:41:43.104Z,7.40
2019-04-16T00:44:46.565Z,7.43
2019-04-16T00:47:51.334Z,7.70
2019-04-16T00:50:55.199Z,7.80
2019-04-16T00:53:58.887Z,7.87
2019-04-16T00:57:02.437Z,7.27
2019-04-16T01:00:08.796Z,7.33
2019-04-16T01:03:12.252Z,7.63
2019-04-16T01:06:15.700Z,7.37
2019-04-16T01:09:19.149Z,7.67
2019-04-16T01:12:22.603Z,7.20
2019-04-16T01:15:26.054Z,6.67
2019-04-16T01:18:29.766Z,7.20
2019-04-16T01:21:33.226Z,7.07
2019-04-16T01:24:36.687Z,7.10
2019-04-16T01:27:41.794Z,7.13
2019-04-16T01:31:07.109Z,7.30
2019-04-16T01:34:10.018Z,7.23
2019-04-16T01:37:32.885Z,7.30
2019-04-16T01:40:50.120Z,7.33
2019-04-16T01:43:54.306Z,7.37
2019-04-16T01:46:57.804Z,7.87
2019-04-16T01:50:01.498Z,8.17
2019-04-16T01:53:04.958Z,7.60
2019-04-16T01:56:08.423Z,7.57
2019-04-16T01:59:11.878Z,7.67
2019-04-16T02:02:15.986Z,7.70
2019-04-16T02:05:20.410Z,7.53
2019-04-16T02:08:24.651Z,7.80
2019-04-16T02:11:28.106Z,7.63
2019-04-16T02:14:31.575Z,7.27
2019-04-16T02:17:35.035Z,7.30
2019-04-16T02:20:39.317Z,7.50
2019-04-16T02:23:45.346Z,7.73
2019-04-16T02:26:48.395Z,7.77
2019-04-16T02:29:53.695Z,7.70
2019-04-16T02:32:57.011Z,7.43
2019-04-16T02:36:00.609Z,7.90
2019-04-16T02:39:07.670Z,7.63
2019-04-16T02:42:11.120Z,8.30
2019-04-16T02:45:14.658Z,8.13
2019-04-16T02:48:18.105Z,8.03
2019-04-16T02:51:26.153Z,7.97
2019-04-16T02:54:33.961Z,7.33
2019-04-16T02:57:59.560Z,7.67
2019-04-16T03:01:20.914Z,8.00
2019-04-16T03:04:32.126Z,7.47
2019-04-16T03:07:35.588Z,7.23
2019-04-16T03:10:41.891Z,7.87
2019-04-16T03:13:44.305Z,7.90
2019-04-16T03:16:58.642Z,7.80
2019-04-16T03:20:03.730Z,7.73
2019-04-16T03:23:07.173Z,7.80
2019-04-16T03:26:10.641Z,7.70
2019-04-16T03:29:14.152Z,8.27
2019-04-16T03:32:17.611Z,7.63
2019-04-16T03:35:25.441Z,8.00
2019-04-16T03:38:26.250Z,7.77
2019-04-16T03:41:29.700Z,7.80
2019-04-16T03:44:33.477Z,7.80
2019-04-16T03:47:38.354Z,7.10
2019-04-16T03:50:41.866Z,8.30
2019-04-16T03:53:46.480Z,8.27
2019-04-16T03:56:50.507Z,8.00
2019-04-16T03:59:53.962Z,7.80
2019-04-16T04:02:57.401Z,7.63
2019-04-16T04:06:03.598Z,7.70
2019-04-16T04:09:06.403Z,8.40
2019-04-16T04:12:13.344Z,8.30
2019-04-16T04:15:15.074Z,7.87
2019-04-16T04:18:18.542Z,8.40
2019-04-16T04:21:22.648Z,8.87
2019-04-16T04:24:28.545Z,7.90
2019-04-16T04:27:31.426Z,8.73
2019-04-16T04:30:34.867Z,8.10
2019-04-16T04:33:41.601Z,8.20
2019-04-16T04:36:43.506Z,8.40
2019-04-16T04:39:47.045Z,8.40
2019-04-16T04:42:50.493Z,8.83
2019-04-16T04:45:53.966Z,8.13
2019-04-16T04:49:00.232Z,7.93
2019-04-16T04:52:02.610Z,8.80
2019-04-16T04:55:06.394Z,8.40
2019-04-16T04:58:09.851Z,8.50
2019-04-16T05:01:14.237Z,8.93
2019-04-16T05:04:21.023Z,8.60
2019-04-16T05:07:25.683Z,8.07
2019-04-16T05:10:29.879Z,8.50
2019-04-16T05:13:33.423Z,8.50
2019-04-16T05:16:36.850Z,8.33
2019-04-16T05:19:40.306Z,8.13
2019-04-16T05:22:43.754Z,8.33
2019-04-16T05:25:47.217Z,8.47
2019-04-16T05:28:50.660Z,8.77
2019-04-16T05:31:54.505Z,8.57
2019-04-16T05:34:59.278Z,8.60
2019-04-16T05:38:02.729Z,8.53
2019-04-16T05:41:13.067Z,9.10
2019-04-16T05:44:11.366Z,8.17
2019-04-16T05:47:18.073Z,8.60
2019-04-16T05:50:20.018Z,8.63
2019-04-16T05:53:23.510Z,8.20
2019-04-16T05:56:37.907Z,8.13
2019-04-16T05:59:41.350Z,7.77
2019-04-16T06:02:49.621Z,8.70
2019-04-16T06:05:49.998Z,8.53
2019-04-16T06:08:56.053Z,8.00
2019-04-16T06:11:58.730Z,8.17
2019-04-16T06:15:12.726Z,8.07
2019-04-16T06:18:37.916Z,8.20
2019-04-16T06:21:43.937Z,8.40
2019-04-16T06:25:09.326Z,7.47
2019-04-16T06:28:28.312Z,7.63
2019-04-16T06:31:40.131Z,7.80
2019-04-16T06:34:45.231Z,8.53
2019-04-16T06:37:50.333Z,8.33
2019-04-16T06:41:04.404Z,8.43
2019-04-16T06:44:12.518Z,7.90
2019-04-16T06:47:33.861Z,8.37
2019-04-16T06:50:45.026Z,9.03
2019-04-16T06:54:06.878Z,8.27
2019-04-16T06:57:21.214Z,8.07
2019-04-16T07:00:38.171Z,7.73
2019-04-16T07:03:49.505Z,8.33
2019-04-16T07:07:11.263Z,8.20
2019-04-16T07:10:16.366Z,8.00
2019-04-16T07:13:19.822Z,8.23
2019-04-16T07:16:28.142Z,8.03
2019-04-16T07:19:28.542Z,8.03
2019-04-16T07:22:32.168Z,8.80
2019-04-16T07:25:41.583Z,7.93
2019-04-16T07:28:48.838Z,8.30
2019-04-16T07:31:54.277Z,9.30
2019-04-16T07:35:08.874Z,8.83
2019-04-16T07:38:14.026Z,8.73
2019-04-16T07:41:19.133Z,8.83
2019-04-16T07:44:33.019Z,8.60
2019-04-16T07:47:44.090Z,8.40
2019-04-16T07:51:01.842Z,8.57
2019-04-16T07:54:08.006Z,8.73
2019-04-16T07:57:11.474Z,8.83
2019-04-16T08:00:15.262Z,8.80
2019-04-16T08:03:18.722Z,9.30
2019-04-16T08:06:22.166Z,9.00
2019-04-16T08:09:28.959Z,10.17
2019-04-16T08:12:31.147Z,9.07
2019-04-16T08:15:34.738Z,9.53
2019-04-16T08:18:39.839Z,9.50
2019-04-16T08:21:44.355Z,10.40
2019-04-16T08:24:49.828Z,9.80
2019-04-16T08:27:53.998Z,9.87
2019-04-16T08:30:58.589Z,9.33
2019-04-16T08:34:02.211Z,10.40
2019-04-16T08:37:08.123Z,9.40
2019-04-16T08:40:12.482Z,10.03
2019-04-16T08:43:16.251Z,9.50
2019-04-16T08:46:19.703Z,10.33
2019-04-16T08:49:23.169Z,9.90
2019-04-16T08:52:26.614Z,10.13
2019-04-16T08:55:30.083Z,10.60
2019-04-16T08:58:35.711Z,10.43
2019-04-16T09:01:38.739Z,10.50
2019-04-16T09:04:42.178Z,10.63
2019-04-16T09:07:50.652Z,10.33
2019-04-16T09:10:50.843Z,10.67
2019-04-16T09:14:04.127Z,10.83
2019-04-16T09:17:11.909Z,11.03
2019-04-16T09:20:26.079Z,11.57
2019-04-16T09:23:29.551Z,10.90
2019-04-16T09:26:37.565Z,11.40
2019-04-16T09:29:45.335Z,11.10
2019-04-16T09:33:00.409Z,11.27
2019-04-16T09:36:09.157Z,11.73
2019-04-16T09:39:30.906Z,11.33
2019-04-16T09:42:35.447Z,11.67
2019-04-16T09:45:38.910Z,11.77
2019-04-16T09:48:42.363Z,11.63
2019-04-16T09:51:45.834Z,12.13
2019-04-16T09:54:49.310Z,11.43
2019-04-16T09:57:52.794Z,12.57
2019-04-16T10:01:06.998Z,12.43
2019-04-16T10:04:14.947Z,11.67
2019-04-16T10:07:18.390Z,12.13
2019-04-16T10:10:24.016Z,11.93
2019-04-16T10:13:32.780Z,12.40
2019-04-16T10:16:32.245Z,12.77
2019-04-16T10:19:35.846Z,12.37
2019-04-16T10:22:39.319Z,11.83
2019-04-16T10:25:42.855Z,12.30
2019-04-16T10:28:47.750Z,12.97
2019-04-16T10:31:51.810Z,11.93
2019-04-16T10:34:55.307Z,13.37
2019-04-16T10:38:00.421Z,11.90
2019-04-16T10:41:08.499Z,12.43
2019-04-16T10:44:19.717Z,12.47
2019-04-16T10:47:43.711Z,12.80
2019-04-16T10:50:48.824Z,13.40
2019-04-16T10:54:00.088Z,12.13
2019-04-16T10:57:20.531Z,11.97
2019-04-16T11:00:25.697Z,14.53
2019-04-16T11:03:46.075Z,13.33
2019-04-16T11:06:51.230Z,13.87
2019-04-16T11:09:54.707Z,12.93
2019-04-16T11:12:58.222Z,13.53
2019-04-16T11:16:03.359Z,13.60
2019-04-16T11:19:06.857Z,13.07
2019-04-16T11:22:10.374Z,13.87
2019-04-16T11:25:14.006Z,13.60
2019-04-16T11:28:17.511Z,14.07
2019-04-16T11:31:22.641Z,12.53
2019-04-16T11:34:26.145Z,13.80
2019-04-16T11:37:34.269Z,14.30
2019-04-16T11:40:34.803Z,13.90
2019-04-16T11:43:38.342Z,13.43
2019-04-16T11:46:41.864Z,14.00
2019-04-16T11:49:45.426Z,14.03
2019-04-16T11:52:48.969Z,14.10
2019-04-16T11:55:52.485Z,14.60
2019-04-16T11:58:57.563Z,13.83
2019-04-16T12:02:11.794Z,13.97
2019-04-16T12:05:17.169Z,13.67
2019-04-16T12:08:22.373Z,13.63
2019-04-16T12:11:42.745Z,13.00
2019-04-16T12:14:47.881Z,13.13
2019-04-16T12:17:56.011Z,13.57
2019-04-16T12:21:03.889Z,12.77
2019-04-16T12:24:20.979Z,13.53
2019-04-16T12:27:32.384Z,13.70
2019-04-16T12:30:52.441Z,12.70
2019-04-16T12:34:06.490Z,13.27
2019-04-16T12:37:14.395Z,13.57
2019-04-16T12:40:21.130Z,13.50
2019-04-16T12:43:32.299Z,13.40
2019-04-16T12:46:49.414Z,13.73
2019-04-16T12:49:57.203Z,13.30
2019-04-16T12:53:02.317Z,12.80
2019-04-16T12:56:09.934Z,12.10
2019-04-16T12:59:15.204Z,12.50
2019-04-16T13:02:26.317Z,13.00
2019-04-16T13:05:31.438Z,13.77
2019-04-16T13:08:39.250Z,13.77
2019-04-16T13:11:44.362Z,12.80
2019-04-16T13:15:06.329Z,13.10
2019-04-16T13:18:17.797Z,14.10
2019-04-16T13:21:22.894Z,13.10
2019-04-16T13:24:27.991Z,13.40
2019-04-16T13:27:36.009Z,13.53
2019-04-16T13:30:39.478Z,13.90
2019-04-16T13:33:43.533Z,13.33
2019-04-16T13:36:51.500Z,14.17
2019-04-16T13:39:54.958Z,13.80
2019-04-16T13:43:01.526Z,13.47
2019-04-16T13:46:03.608Z,13.37
2019-04-16T13:49:08.837Z,14.20
2019-04-16T13:52:12.430Z,13.63
2019-04-16T13:55:26.579Z,13.83
2019-04-16T13:58:37.663Z,13.53
2019-04-16T14:01:45.949Z,14.63
2019-04-16T14:04:48.177Z,14.40
2019-04-16T14:07:51.645Z,14.03
2019-04-16T14:10:55.122Z,14.67
2019-04-16T14:13:58.565Z,14.57
2019-04-16T14:17:09.386Z,14.60
2019-04-16T14:20:12.659Z,14.53
2019-04-16T14:23:13.845Z,14.03
2019-04-16T14:26:17.326Z,14.53
2019-04-16T14:29:20.770Z,13.57
2019-04-16T14:32:24.250Z,14.00
2019-04-16T14:35:33.571Z,14.27
2019-04-16T14:38:45.030Z,14.67
2019-04-16T14:41:49.929Z,14.80
2019-04-16T14:45:06.348Z,14.07
2019-04-16T14:48:08.637Z,14.63
2019-04-16T14:51:12.042Z,14.77
2019-04-16T14:54:26.114Z,15.03
2019-04-16T14:57:36.254Z,16.27
2019-04-16T15:00:41.374Z,16.40
2019-04-16T15:03:49.458Z,17.03
2019-04-16T15:07:06.858Z,16.03
2019-04-16T15:10:24.160Z,16.43
2019-04-16T15:13:35.334Z,17.27
2019-04-16T15:16:40.508Z,16.67
2019-04-16T15:20:02.075Z,16.10
2019-04-16T15:23:19.334Z,16.93
2019-04-16T15:26:24.442Z,16.73
2019-04-16T15:29:35.579Z,17.07
2019-04-16T15:32:43.384Z,16.33
2019-04-16T15:35:51.487Z,17.20
2019-04-16T15:39:11.549Z,17.37
2019-04-16T15:42:17.735Z,16.93
2019-04-16T15:45:41.338Z,17.73
2019-04-16T15:49:02.746Z,16.63
2019-04-16T15:52:10.984Z,17.67
2019-04-16T15:55:24.730Z,18.07
2019-04-16T15:58:38.733Z,16.30
2019-04-16T16:01:49.794Z,17.00
2019-04-16T16:04:54.991Z,17.60
2019-04-16T16:08:12.351Z,16.73
2019-04-16T16:11:26.662Z,17.50
2019-04-16T16:14:34.629Z,17.83
2019-04-16T16:17:35.416Z,17.23
2019-04-16T16:20:38.854Z,16.43
2019-04-16T16:23:42.344Z,18.60
2019-04-16T16:26:45.841Z,16.40
2019-04-16T16:29:49.326Z,17.30
2019-04-16T16:32:52.785Z,16.30
2019-04-16T16:35:58.867Z,17.67
2019-04-16T16:39:01.557Z,16.47
2019-04-16T16:42:05.124Z,17.43
2019-04-16T16:45:08.750Z,17.43
2019-04-16T16:48:14.098Z,16.57
2019-04-16T16:51:17.610Z,17.40
2019-04-16T16:54:22.693Z,16.47
2019-04-16T16:57:33.987Z,17.37
2019-04-16T17:00:59.456Z,17.00
2019-04-16T17:04:02.450Z,16.90
2019-04-16T17:07:06.158Z,16.73
2019-04-16T17:10:09.773Z,17.30
2019-04-16T17:13:14.603Z,16.97
2019-04-16T17:16:18.405Z,17.17
2019-04-16T17:19:21.881Z,17.23
2019-04-16T17:22:25.325Z,16.43
2019-04-16T17:25:36.072Z,16.80
2019-04-16T17:28:34.016Z,17.10
2019-04-16T17:31:37.471Z,17.27
2019-04-16T17:34:40.934Z,16.63
2019-04-16T17:37:44.414Z,16.30
2019-04-16T17:40:58.626Z,17.27
2019-04-16T17:44:03.552Z,17.00
2019-04-16T17:47:32.314Z,16.80
2019-04-16T17:50:46.939Z,16.57
2019-04-16T17:53:52.034Z,16.57
2019-04-16T17:57:00.098Z,15.67
2019-04-16T18:00:06.552Z,16.50
2019-04-16T18:03:26.863Z,16.37
2019-04-16T18:06:34.756Z,16.83
2019-04-16T18:09:45.935Z,16.33
2019-04-16T18:12:55.155Z,15.97
2019-04-16T18:16:19.856Z,16.07
2019-04-16T18:19:24.959Z,16.50
2019-04-16T18:22:30.203Z,16.43
2019-04-16T18:25:35.406Z,15.83
2019-04-16T18:28:46.486Z,16.83
2019-04-16T18:31:52.431Z,15.63
2019-04-16T18:35:16.145Z,16.83
2019-04-16T18:38:23.466Z,16.07
2019-04-16T18:41:34.551Z,16.43
2019-04-16T18:44:56.286Z,17.30
2019-04-16T18:48:13.158Z,15.90
2019-04-16T18:51:12.689Z,15.17
2019-04-16T18:54:16.137Z,16.70
2019-04-16T18:57:19.625Z,16.53
2019-04-16T19:00:31.924Z,16.27
2019-04-16T19:03:35.775Z,16.47
2019-04-16T19:06:39.214Z,16.33
2019-04-16T19:09:42.687Z,15.03
2019-04-16T19:12:46.140Z,16.93
2019-04-16T19:15:49.685Z,16.47
2019-04-16T19:18:53.201Z,15.47
2019-04-16T19:21:57.070Z,15.53
2019-04-16T19:25:00.517Z,15.43
2019-04-16T19:28:06.010Z,15.57
2019-04-16T19:31:09.181Z,16.00
2019-04-16T19:34:12.641Z,16.07
2019-04-16T19:37:16.106Z,15.50
2019-04-16T19:40:19.662Z,16.27
2019-04-16T19:43:23.130Z,16.53
2019-04-16T19:46:26.574Z,15.83
2019-04-16T19:49:30.038Z,14.93
2019-04-16T19:52:33.503Z,15.50
2019-04-16T19:55:36.954Z,15.20
2019-04-16T19:58:40.422Z,16.17
2019-04-16T20:01:44.247Z,15.67
2019-04-16T20:04:50.659Z,16.73
2019-04-16T20:07:53.133Z,15.80
2019-04-16T20:10:56.750Z,14.53
2019-04-16T20:14:02.692Z,14.43
2019-04-16T20:17:05.417Z,14.70
2019-04-16T20:20:08.955Z,14.50
2019-04-16T20:23:12.406Z,14.80
2019-04-16T20:26:15.874Z,14.73
2019-04-16T20:29:19.327Z,14.17
2019-04-16T20:32:23.841Z,15.07
2019-04-16T20:35:27.310Z,15.07
2019-04-16T20:38:30.754Z,14.03
2019-04-16T20:41:34.226Z,15.00
2019-04-16T20:44:37.699Z,14.10
2019-04-16T20:47:41.157Z,14.07
2019-04-16T20:50:44.630Z,14.53
2019-04-16T20:53:48.165Z,14.70
2019-04-16T20:56:53.237Z,13.37
2019-04-16T20:59:56.806Z,14.50
2019-04-16T21:03:02.570Z,13.30
2019-04-16T21:06:07.842Z,14.07
2019-04-16T21:09:10.679Z,13.20
2019-04-16T21:12:14.129Z,13.77
2019-04-16T21:15:17.603Z,14.03
2019-04-16T21:18:21.071Z,13.87
2019-04-16T21:21:24.518Z,13.47
2019-04-16T21:24:27.999Z,13.53
2019-04-16T21:27:33.082Z,13.53
2019-04-16T21:30:36.810Z,13.13
2019-04-16T21:33:49.263Z,14.07
2019-04-16T21:36:55.111Z,13.73
2019-04-16T21:40:03.246Z,13.13
2019-04-16T21:43:08.236Z,13.03
2019-04-16T21:46:11.994Z,12.77
2019-04-16T21:49:15.457Z,13.03
2019-04-16T21:52:18.914Z,13.13
2019-04-16T21:55:22.385Z,12.20
2019-04-16T21:58:25.844Z,12.43
2019-04-16T22:01:36.717Z,13.60
2019-04-16T22:04:42.647Z,12.60
2019-04-16T22:07:45.530Z,12.87
2019-04-16T22:10:48.982Z,12.63
2019-04-16T22:13:52.454Z,12.90
2019-04-16T22:16:56.000Z,12.37
2019-04-16T22:20:03.624Z,12.67
2019-04-16T22:23:04.975Z,11.60
2019-04-16T22:26:10.794Z,12.23
2019-04-16T22:29:15.648Z,11.07
2019-04-16T22:32:18.846Z,12.60
2019-04-16T22:35:22.309Z,11.57
2019-04-16T22:38:26.634Z,12.07
2019-04-16T22:41:46.654Z,11.97
2019-04-16T22:45:08.571Z,12.37
2019-04-16T22:48:12.104Z,12.23
2019-04-16T22:51:15.566Z,11.87
2019-04-16T22:54:20.878Z,11.50
2019-04-16T22:57:24.207Z,11.93
2019-04-16T23:00:29.314Z,11.13
2019-04-16T23:03:32.763Z,12.83
2019-04-16T23:06:38.676Z,11.67
2019-04-16T23:09:41.397Z,11.90
2019-04-16T23:12:44.862Z,11.83
2019-04-16T23:15:48.333Z,11.87
2019-04-16T23:18:51.771Z,11.97
2019-04-16T23:21:55.234Z,11.00
2019-04-16T23:24:58.702Z,11.33
2019-04-16T23:28:02.146Z,11.63
2019-04-16T23:31:05.681Z,11.63
2019-04-16T23:34:09.131Z,11.80
2019-04-16T23:37:12.602Z,11.27
2019-04-16T23:40:16.050Z,11.80
2019-04-16T23:43:30.446Z,11.83
2019-04-16T23:46:37.822Z,12.37
2019-04-16T23:49:58.352Z,11.87
2019-04-16T23:53:08.739Z,10.87
2019-04-16T23:56:17.767Z,11.97
2019-04-16T23:59:26.734Z,11.13
